createdAt,value
2022-09-29T00:02:59.037Z,15.94
2022-09-29T00:08:02.745Z,15.59
2022-09-29T00:13:07.648Z,15.58
2022-09-29T00:18:14.502Z,15.53
2022-09-29T00:23:18.307Z,15.42
2022-09-29T00:28:23.139Z,15.35
2022-09-29T00:33:26.710Z,15.21
2022-09-29T00:38:31.092Z,15.15
2022-09-29T00:43:57.330Z,15.07
2022-09-29T00:49:03.840Z,14.97
2022-09-29T00:54:08.500Z,14.97
2022-09-29T00:59:18.350Z,14.94
2022-09-29T01:04:22.469Z,14.82
2022-09-29T01:09:28.211Z,14.85
2022-09-29T01:14:34.240Z,14.73
2022-09-29T01:19:47.285Z,14.69
2022-09-29T01:24:57.250Z,14.65
2022-09-29T01:30:14.173Z,14.63
2022-09-29T01:35:23.622Z,14.57
2022-09-29T01:40:31.381Z,14.59
2022-09-29T01:45:37.651Z,14.54
2022-09-29T01:50:46.651Z,14.48
2022-09-29T01:55:53.104Z,14.39
2022-09-29T02:00:59.484Z,14.46
2022-09-29T02:06:07.007Z,14.48
2022-09-29T02:11:12.307Z,14.51
2022-09-29T02:16:18.490Z,14.43
2022-09-29T02:21:24.554Z,14.45
2022-09-29T02:26:31.767Z,14.41
2022-09-29T02:31:35.975Z,14.36
2022-09-29T02:36:46.238Z,14.32
2022-09-29T02:41:52.502Z,14.26
2022-09-29T02:47:06.565Z,14.22
2022-09-29T02:52:20.727Z,14.31
2022-09-29T02:57:29.819Z,14.30
2022-09-29T03:02:33.237Z,14.00
2022-09-29T03:07:38.932Z,13.98
2022-09-29T03:12:42.597Z,13.86
2022-09-29T03:17:46.096Z,13.84
2022-09-29T03:22:52.101Z,13.82
2022-09-29T03:27:55.543Z,13.74
2022-09-29T03:32:58.986Z,13.65
2022-09-29T03:38:04.042Z,13.49
2022-09-29T03:43:07.409Z,13.39
2022-09-29T03:48:10.780Z,13.29
2022-09-29T03:53:15.922Z,13.29
2022-09-29T03:58:19.922Z,13.31
2022-09-29T04:03:23.317Z,13.38
2022-09-29T04:08:28.156Z,13.44
2022-09-29T04:13:31.515Z,13.58
2022-09-29T04:18:35.302Z,13.80
2022-09-29T04:23:40.141Z,13.86
2022-09-29T04:28:43.720Z,14.04
2022-09-29T04:33:47.134Z,14.03
2022-09-29T04:38:51.975Z,14.17
2022-09-29T04:43:55.443Z,14.18
2022-09-29T04:48:59.009Z,14.07
2022-09-29T04:54:03.968Z,14.00
2022-09-29T04:59:07.436Z,14.08
2022-09-29T05:04:12.857Z,13.96
2022-09-29T05:09:17.741Z,14.00
2022-09-29T05:14:21.170Z,13.92
2022-09-29T05:19:24.627Z,14.01
2022-09-29T05:24:29.521Z,14.03
2022-09-29T05:29:32.998Z,13.94
2022-09-29T05:34:36.434Z,13.95
2022-09-29T05:39:42.002Z,13.93
2022-09-29T05:44:45.415Z,14.03
2022-09-29T05:49:49.597Z,14.06
2022-09-29T05:54:54.826Z,14.08
2022-09-29T05:59:58.382Z,14.11
2022-09-29T06:05:01.943Z,14.10
2022-09-29T06:10:07.582Z,14.26
2022-09-29T06:15:12.194Z,14.20
2022-09-29T06:20:16.056Z,14.22
2022-09-29T06:25:20.972Z,14.29
2022-09-29T06:30:24.563Z,14.20
2022-09-29T06:35:44.815Z,14.31
2022-09-29T06:40:49.753Z,14.36
2022-09-29T06:45:53.440Z,14.32
2022-09-29T06:51:06.486Z,14.20
2022-09-29T06:56:14.921Z,14.55
2022-09-29T07:01:19.073Z,14.74
2022-09-29T07:06:22.619Z,15.06
2022-09-29T07:11:29.467Z,15.18
2022-09-29T07:16:32.941Z,15.54
2022-09-29T07:21:36.739Z,15.45
2022-09-29T07:26:41.606Z,15.72
2022-09-29T07:31:52.203Z,15.79
2022-09-29T07:36:55.879Z,16.07
2022-09-29T07:42:00.679Z,16.40
2022-09-29T07:47:04.186Z,16.37
2022-09-29T07:52:07.640Z,16.33
2022-09-29T07:57:12.882Z,16.60
2022-09-29T08:02:16.449Z,16.72
2022-09-29T08:07:20.009Z,16.99
2022-09-29T08:12:35.360Z,17.03
2022-09-29T08:17:43.975Z,17.07
2022-09-29T08:22:48.660Z,17.06
2022-09-29T08:27:55.869Z,17.35
2022-09-29T08:32:59.595Z,17.73
2022-09-29T08:38:03.046Z,17.95
2022-09-29T08:43:12.206Z,18.54
2022-09-29T08:48:23.156Z,18.96
2022-09-29T08:53:29.494Z,19.28
2022-09-29T08:58:35.020Z,19.73
2022-09-29T09:03:51.011Z,19.67
2022-09-29T09:09:10.867Z,19.86
2022-09-29T09:14:26.359Z,19.74
2022-09-29T09:19:44.557Z,20.09
2022-09-29T09:24:49.954Z,19.87
2022-09-29T09:30:03.651Z,20.16
2022-09-29T09:35:23.798Z,19.89
2022-09-29T09:40:29.655Z,19.92
2022-09-29T09:45:39.844Z,20.24
2022-09-29T09:50:44.211Z,20.51
2022-09-29T09:55:52.733Z,19.50
2022-09-29T10:00:59.477Z,20.71
2022-09-29T10:06:03.538Z,20.83
2022-09-29T10:11:17.361Z,21.02
2022-09-29T10:16:25.605Z,21.88
2022-09-29T10:21:39.696Z,21.20
2022-09-29T10:26:44.826Z,22.28
2022-09-29T10:32:01.574Z,20.38
2022-09-29T10:37:06.846Z,20.66
2022-09-29T10:42:24.472Z,21.78
2022-09-29T10:47:30.751Z,21.88
2022-09-29T10:52:34.203Z,21.74
2022-09-29T10:57:39.966Z,21.38
2022-09-29T11:02:44.980Z,21.36
2022-09-29T11:07:51.750Z,21.29
2022-09-29T11:13:00.887Z,20.58
2022-09-29T11:18:18.949Z,22.28
2022-09-29T11:23:28.276Z,22.67
2022-09-29T11:28:41.141Z,23.75
2022-09-29T11:33:53.251Z,24.72
2022-09-29T11:39:09.889Z,25.28
2022-09-29T11:44:23.680Z,24.59
2022-09-29T11:49:47.627Z,22.37
2022-09-29T11:55:05.498Z,22.84
2022-09-29T12:00:11.935Z,21.65
2022-09-29T12:05:20.563Z,22.00
2022-09-29T12:10:37.409Z,21.70
2022-09-29T12:15:48.560Z,21.33
2022-09-29T12:20:55.390Z,21.33
2022-09-29T12:26:03.425Z,21.62
2022-09-29T12:31:12.010Z,21.54
2022-09-29T12:36:46.674Z,22.37
2022-09-29T12:41:54.322Z,22.24
2022-09-29T12:47:04.177Z,22.73
2022-09-29T12:52:16.355Z,22.81
2022-09-29T12:57:21.975Z,23.31
2022-09-29T13:02:44.759Z,23.92
2022-09-29T13:08:24.722Z,23.03
2022-09-29T13:13:45.041Z,23.94
2022-09-29T13:19:20.138Z,23.53
2022-09-29T13:24:50.059Z,24.19
2022-09-29T13:29:59.832Z,24.49
2022-09-29T13:35:03.440Z,24.14
2022-09-29T13:40:11.698Z,24.39
2022-09-29T13:45:37.952Z,24.10
2022-09-29T13:50:42.674Z,24.47
2022-09-29T13:55:52.265Z,24.88
2022-09-29T14:00:57.075Z,25.06
2022-09-29T14:06:29.266Z,23.92
2022-09-29T14:11:36.100Z,25.01
2022-09-29T14:16:48.543Z,24.67
2022-09-29T14:21:54.833Z,24.44
2022-09-29T14:27:20.421Z,24.83
2022-09-29T14:32:33.210Z,24.68
2022-09-29T14:37:37.883Z,24.68
2022-09-29T14:42:42.617Z,24.56
2022-09-29T14:48:07.011Z,24.83
2022-09-29T14:53:22.262Z,24.41
2022-09-29T14:58:37.949Z,24.05
2022-09-29T15:03:46.991Z,23.42
2022-09-29T15:08:55.754Z,23.37
2022-09-29T15:14:00.965Z,23.48
2022-09-29T15:19:28.061Z,23.34
2022-09-29T15:24:58.737Z,23.25
2022-09-29T15:30:03.600Z,23.28
2022-09-29T15:35:09.080Z,23.26
2022-09-29T15:40:16.075Z,23.42
2022-09-29T15:45:23.010Z,23.50
2022-09-29T15:50:27.584Z,23.23
2022-09-29T15:55:32.361Z,22.70
2022-09-29T16:00:58.919Z,22.97
2022-09-29T16:06:05.948Z,22.75
2022-09-29T16:11:15.773Z,22.59
2022-09-29T16:16:27.522Z,22.41
2022-09-29T16:21:35.542Z,22.33
2022-09-29T16:26:40.430Z,22.15
2022-09-29T16:31:46.605Z,22.07
2022-09-29T16:36:51.913Z,21.97
2022-09-29T16:41:56.510Z,21.59
2022-09-29T16:47:04.056Z,21.57
2022-09-29T16:52:14.028Z,21.24
2022-09-29T16:57:25.335Z,20.88
2022-09-29T17:02:30.188Z,20.54
2022-09-29T17:07:33.753Z,19.98
2022-09-29T17:12:37.195Z,19.90
2022-09-29T17:17:43.475Z,19.64
2022-09-29T17:22:46.993Z,19.38
2022-09-29T17:28:07.901Z,19.21
2022-09-29T17:33:15.334Z,19.25
2022-09-29T17:38:18.870Z,18.93
2022-09-29T17:43:23.320Z,18.91
2022-09-29T17:48:29.369Z,18.71
2022-09-29T17:53:32.749Z,18.46
2022-09-29T17:58:36.237Z,18.40
2022-09-29T18:03:42.326Z,18.23
2022-09-29T18:08:48.288Z,18.09
2022-09-29T18:13:53.903Z,18.09
2022-09-29T18:18:59.606Z,17.92
2022-09-29T18:24:03.043Z,17.63
2022-09-29T18:29:14.609Z,17.33
2022-09-29T18:34:21.189Z,17.37
2022-09-29T18:39:24.867Z,17.28
2022-09-29T18:44:33.332Z,17.26
2022-09-29T18:49:38.241Z,17.05
2022-09-29T18:54:41.751Z,16.86
2022-09-29T18:59:45.771Z,16.81
2022-09-29T19:04:53.774Z,16.79
2022-09-29T19:09:58.221Z,16.55
2022-09-29T19:15:01.897Z,16.49
2022-09-29T19:20:07.244Z,16.47
2022-09-29T19:25:13.963Z,16.29
2022-09-29T19:30:20.571Z,16.29
2022-09-29T19:35:25.654Z,16.32
2022-09-29T19:40:31.085Z,16.25
2022-09-29T19:45:37.560Z,16.16
2022-09-29T19:51:00.116Z,16.10
2022-09-29T19:56:09.224Z,16.12
2022-09-29T20:01:13.006Z,16.03
2022-09-29T20:06:17.959Z,16.09
2022-09-29T20:11:21.592Z,16.10
2022-09-29T20:16:25.067Z,15.99
2022-09-29T20:21:31.464Z,16.09
2022-09-29T20:26:34.887Z,16.20
2022-09-29T20:31:38.869Z,16.32
2022-09-29T20:36:43.908Z,16.39
2022-09-29T20:41:48.216Z,16.37
2022-09-29T20:46:52.022Z,16.49
2022-09-29T20:51:59.166Z,16.57
2022-09-29T20:57:03.417Z,16.61
2022-09-29T21:02:07.240Z,16.60
2022-09-29T21:07:26.090Z,16.63
2022-09-29T21:12:29.627Z,16.54
2022-09-29T21:17:33.299Z,16.54
2022-09-29T21:22:38.288Z,16.50
2022-09-29T21:27:41.992Z,16.59
2022-09-29T21:32:45.615Z,16.57
2022-09-29T21:37:50.662Z,16.65
2022-09-29T21:42:54.270Z,16.62
2022-09-29T21:48:10.732Z,16.71
2022-09-29T21:53:15.687Z,16.75
2022-09-29T21:58:19.287Z,16.79
2022-09-29T22:03:23.278Z,16.82
2022-09-29T22:08:28.649Z,16.91
2022-09-29T22:13:32.724Z,16.92
2022-09-29T22:18:41.681Z,16.81
2022-09-29T22:23:47.043Z,16.75
2022-09-29T22:28:53.059Z,16.78
2022-09-29T22:33:57.952Z,16.78
2022-09-29T22:39:03.571Z,16.82
2022-09-29T22:44:07.847Z,16.80
2022-09-29T22:49:11.722Z,16.82
2022-09-29T22:54:17.213Z,16.79
2022-09-29T22:59:20.817Z,16.71
2022-09-29T23:04:24.828Z,16.47
2022-09-29T23:09:29.937Z,16.45
2022-09-29T23:14:33.538Z,16.37
2022-09-29T23:19:37.081Z,16.28
2022-09-29T23:24:42.846Z,16.38
2022-09-29T23:29:46.457Z,16.39
2022-09-29T23:34:50.017Z,16.37
2022-09-29T23:39:54.953Z,16.32
2022-09-29T23:44:58.586Z,16.33
2022-09-29T23:50:02.498Z,16.08
2022-09-29T23:55:08.062Z,15.98
